createdAt,value
2022-09-22T00:52:57.169Z,71.67
2022-09-22T00:55:36.204Z,78.37
2022-09-22T01:10:43.311Z,96.13
2022-09-22T01:13:27.751Z,89.63
2022-09-22T01:16:15.317Z,90.03
2022-09-22T01:19:00.676Z,90.10
2022-09-22T01:21:47.449Z,93.73
2022-09-22T01:25:01.705Z,88.17
2022-09-22T01:28:05.563Z,92.00
2022-09-22T01:30:47.835Z,86.50
2022-09-22T01:33:42.930Z,90.07
2022-09-22T01:36:26.867Z,85.10
2022-09-22T01:39:09.585Z,88.80
2022-09-22T01:41:55.394Z,91.30
2022-09-22T01:44:35.550Z,91.67
2022-09-22T01:47:15.264Z,92.87
2022-09-22T01:49:55.019Z,85.70
2022-09-22T01:52:32.722Z,86.70
2022-09-22T01:55:10.094Z,95.30
2022-09-22T01:57:49.166Z,93.13
2022-09-22T02:00:24.365Z,86.63
2022-09-22T02:03:06.423Z,92.20
2022-09-22T02:05:42.993Z,88.03
2022-09-22T02:08:23.031Z,89.47
2022-09-22T02:11:00.283Z,92.70
2022-09-22T02:13:35.041Z,93.27
2022-09-22T02:16:11.186Z,90.87
2022-09-22T02:18:53.349Z,90.37
2022-09-22T02:21:29.091Z,97.43
2022-09-22T02:24:02.833Z,91.17
2022-09-22T02:26:39.154Z,92.57
2022-09-22T02:29:14.366Z,96.03
2022-09-22T02:31:48.453Z,95.00
2022-09-22T02:34:23.978Z,98.77
2022-09-22T02:37:07.730Z,97.57
2022-09-22T02:39:48.194Z,97.53
2022-09-22T02:42:33.616Z,94.67
2022-09-22T02:45:13.850Z,92.23
2022-09-22T02:47:50.611Z,93.57
2022-09-22T02:50:29.500Z,90.27
2022-09-22T02:53:06.927Z,97.40
2022-09-22T02:55:40.232Z,95.83
2022-09-22T02:58:14.395Z,97.10
2022-09-22T03:00:48.416Z,98.67
2022-09-22T03:03:21.751Z,95.63
2022-09-22T03:05:57.397Z,95.83
2022-09-22T03:08:31.865Z,103.03
2022-09-22T03:11:06.263Z,98.30
2022-09-22T03:13:39.464Z,90.73
2022-09-22T03:16:12.989Z,99.40
2022-09-22T03:18:47.096Z,98.90
2022-09-22T03:21:22.955Z,90.50
2022-09-22T03:23:57.037Z,92.77
2022-09-22T03:26:31.104Z,94.30
2022-09-22T03:29:05.205Z,99.50
2022-09-22T03:31:38.635Z,102.67
2022-09-22T03:34:12.732Z,109.10
2022-09-22T03:36:48.714Z,107.70
2022-09-22T03:39:23.107Z,111.90
2022-09-22T03:41:56.453Z,113.23
2022-09-22T03:44:30.137Z,110.07
2022-09-22T03:47:04.285Z,106.20
2022-09-22T03:49:38.307Z,111.07
2022-09-22T03:52:14.162Z,98.40
2022-09-22T03:54:48.022Z,97.50
2022-09-22T03:57:22.242Z,104.77
2022-09-22T03:59:55.723Z,100.93
2022-09-22T04:02:29.371Z,100.77
2022-09-22T04:05:03.295Z,96.47
2022-09-22T04:07:38.673Z,91.77
2022-09-22T04:10:12.295Z,89.23
2022-09-22T04:12:46.039Z,94.13
2022-09-22T04:15:20.460Z,89.30
2022-09-22T04:17:54.329Z,98.50
2022-09-22T04:20:28.773Z,89.53
2022-09-22T04:23:04.617Z,93.93
2022-09-22T04:25:38.384Z,98.53
2022-09-22T04:28:12.398Z,96.70
2022-09-22T04:30:46.127Z,100.97
2022-09-22T04:33:20.106Z,89.27
2022-09-22T04:35:53.588Z,91.93
2022-09-22T04:38:29.434Z,93.70
2022-09-22T04:41:02.582Z,90.00
2022-09-22T04:43:39.092Z,94.40
2022-09-22T04:46:12.645Z,94.60
2022-09-22T04:48:46.426Z,95.57
2022-09-22T04:51:19.723Z,95.93
2022-09-22T04:53:55.302Z,96.83
2022-09-22T04:56:29.256Z,93.90
2022-09-22T04:59:03.386Z,89.77
2022-09-22T05:01:38.126Z,94.03
2022-09-22T05:04:13.226Z,104.97
2022-09-22T05:06:46.999Z,88.57
2022-09-22T05:09:23.884Z,88.50
2022-09-22T05:12:02.390Z,95.90
2022-09-22T05:14:36.765Z,104.07
2022-09-22T05:17:18.650Z,97.57
2022-09-22T05:20:17.171Z,85.33
2022-09-22T05:22:51.010Z,81.07
2022-09-22T05:25:28.011Z,83.40
2022-09-22T05:28:01.791Z,78.17
2022-09-22T05:30:35.505Z,80.10
2022-09-22T05:33:09.396Z,77.07
2022-09-22T05:35:42.539Z,77.50
2022-09-22T05:38:15.834Z,78.27
2022-09-22T05:40:53.372Z,74.40
2022-09-22T05:43:27.618Z,73.30
2022-09-22T05:46:01.745Z,66.22
2022-09-22T05:48:35.216Z,74.80
2022-09-22T05:51:08.991Z,70.65
2022-09-22T05:53:42.237Z,74.00
2022-09-22T05:56:17.207Z,71.43
2022-09-22T05:58:52.129Z,69.82
2022-09-22T06:01:26.111Z,69.65
2022-09-22T06:04:00.715Z,78.53
2022-09-22T06:06:35.613Z,72.13
2022-09-22T06:09:09.731Z,68.00
2022-09-22T06:11:45.817Z,66.37
2022-09-22T06:14:19.935Z,65.30
2022-09-22T06:16:53.746Z,64.17
2022-09-22T06:19:27.353Z,64.67
2022-09-22T06:22:01.476Z,67.47
2022-09-22T06:24:34.868Z,61.70
2022-09-22T06:27:10.937Z,53.97
2022-09-22T06:29:44.805Z,58.30
2022-09-22T06:32:20.609Z,56.85
2022-09-22T06:34:54.332Z,61.40
2022-09-22T06:37:36.080Z,68.90
2022-09-22T06:43:21.607Z,73.03
2022-09-22T06:45:58.686Z,70.07
2022-09-22T06:48:33.441Z,76.00
2022-09-22T06:51:34.334Z,78.97
2022-09-22T06:54:19.182Z,70.17
2022-09-22T06:56:53.198Z,73.10
2022-09-22T06:59:29.329Z,69.70
2022-09-22T07:02:05.618Z,69.47
2022-09-22T07:04:39.538Z,63.33
2022-09-22T07:07:13.627Z,59.40
2022-09-22T07:09:47.075Z,55.40
2022-09-22T07:12:21.307Z,65.67
2022-09-22T07:14:57.812Z,62.50
2022-09-22T07:17:33.888Z,58.47
2022-09-22T07:20:08.817Z,65.30
2022-09-22T07:22:42.803Z,53.27
2022-09-22T07:25:17.718Z,51.63
2022-09-22T07:27:51.310Z,57.17
2022-09-22T07:30:27.469Z,53.57
2022-09-22T07:33:03.307Z,49.03
2022-09-22T07:35:39.108Z,51.27
2022-09-22T07:38:13.334Z,57.43
2022-09-22T07:40:57.337Z,51.97
2022-09-22T07:43:30.670Z,56.87
2022-09-22T07:46:07.760Z,54.83
2022-09-22T07:48:44.215Z,58.47
2022-09-22T07:51:21.827Z,50.80
2022-09-22T07:54:08.322Z,57.40
2022-09-22T07:56:43.816Z,68.47
2022-09-22T07:59:18.763Z,65.17
2022-09-22T08:01:55.350Z,59.57
2022-09-22T08:04:33.105Z,56.57
2022-09-22T08:07:08.735Z,58.50
2022-09-22T08:09:42.567Z,62.53
2022-09-22T08:12:16.110Z,64.17
2022-09-22T08:14:49.383Z,61.50
2022-09-22T08:17:26.132Z,61.23
2022-09-22T08:20:04.141Z,63.53
2022-09-22T08:22:38.304Z,58.10
2022-09-22T08:25:14.043Z,63.43
2022-09-22T08:27:47.850Z,60.30
2022-09-22T08:30:21.058Z,62.60
2022-09-22T08:32:57.159Z,63.17
2022-09-22T08:35:30.277Z,59.43
2022-09-22T08:38:04.079Z,57.20
2022-09-22T08:40:40.432Z,60.40
2022-09-22T08:43:16.414Z,72.40
2022-09-22T08:45:51.372Z,59.53
2022-09-22T08:48:45.193Z,67.33
2022-09-22T08:51:40.217Z,61.97
2022-09-22T08:54:14.333Z,65.33
2022-09-22T08:56:59.069Z,62.30
2022-09-22T08:59:43.484Z,64.17
2022-09-22T09:02:57.574Z,72.07
2022-09-22T09:06:02.649Z,75.37
2022-09-22T09:09:05.532Z,77.20
2022-09-22T09:12:04.532Z,71.40
2022-09-22T09:15:12.147Z,63.47
2022-09-22T09:17:49.027Z,71.63
2022-09-22T09:20:29.435Z,70.20
2022-09-22T09:23:08.749Z,70.73
2022-09-22T09:25:44.939Z,63.00
2022-09-22T09:28:27.014Z,66.10
2022-09-22T09:31:08.805Z,64.53
2022-09-22T09:33:48.775Z,61.23
2022-09-22T09:36:24.699Z,64.90
2022-09-22T09:39:01.028Z,68.93
2022-09-22T09:41:37.669Z,63.33
2022-09-22T09:44:18.131Z,65.27
2022-09-22T09:47:03.856Z,63.10
2022-09-22T09:49:37.749Z,66.60
2022-09-22T09:52:16.044Z,62.37
2022-09-22T09:54:54.964Z,68.67
2022-09-22T09:57:29.784Z,63.23
2022-09-22T10:00:33.909Z,61.43
2022-09-22T10:03:20.243Z,66.03
2022-09-22T10:06:03.972Z,73.50
2022-09-22T10:08:45.316Z,75.33
2022-09-22T10:11:31.225Z,74.67
2022-09-22T10:14:05.221Z,73.07
2022-09-22T10:16:38.885Z,69.77
2022-09-22T10:19:28.274Z,65.23
2022-09-22T10:22:30.135Z,64.37
2022-09-22T10:25:06.002Z,71.07
2022-09-22T10:27:42.050Z,77.03
2022-09-22T10:30:34.315Z,68.17
2022-09-22T10:33:25.579Z,70.90
2022-09-22T10:36:09.457Z,72.23
2022-09-22T10:38:47.122Z,75.07
2022-09-22T10:41:28.510Z,63.03
2022-09-22T10:44:27.754Z,62.30
2022-09-22T10:47:14.273Z,63.87
2022-09-22T10:50:24.820Z,68.93
2022-09-22T10:53:04.025Z,75.07
2022-09-22T10:55:41.210Z,69.27
2022-09-22T10:58:30.800Z,76.37
2022-09-22T11:01:22.327Z,84.70
2022-09-22T11:04:14.663Z,85.00
2022-09-22T11:07:25.798Z,80.97
2022-09-22T11:10:21.226Z,88.87
2022-09-22T11:13:04.548Z,78.30
2022-09-22T11:15:57.660Z,88.33
2022-09-22T11:18:51.500Z,84.00
2022-09-22T11:21:36.156Z,90.07
2022-09-22T11:24:40.793Z,80.03
2022-09-22T11:27:19.534Z,74.87
2022-09-22T11:30:15.206Z,63.83
2022-09-22T11:33:18.014Z,57.90
2022-09-22T11:36:24.883Z,50.83
2022-09-22T11:39:26.662Z,48.07
2022-09-22T11:42:11.448Z,44.63
2022-09-22T11:44:54.646Z,43.07
2022-09-22T11:47:41.342Z,42.93
2022-09-22T11:50:45.775Z,39.53
2022-09-22T11:53:43.082Z,37.73
2022-09-22T11:56:34.955Z,40.97
2022-09-22T11:59:16.428Z,37.43
2022-09-22T12:01:52.648Z,35.43
2022-09-22T12:04:41.554Z,36.70
2022-09-22T12:07:28.008Z,37.83
2022-09-22T12:10:08.263Z,34.57
2022-09-22T12:12:46.298Z,51.33
2022-09-22T12:15:31.344Z,42.23
2022-09-22T12:18:12.087Z,35.80
2022-09-22T12:21:04.757Z,40.37
2022-09-22T12:23:49.010Z,44.30
2022-09-22T12:26:35.147Z,41.63
2022-09-22T12:29:27.969Z,36.87
2022-09-22T12:32:03.385Z,36.03
2022-09-22T12:34:41.126Z,43.67
2022-09-22T12:37:16.486Z,40.60
2022-09-22T12:39:52.428Z,41.73
2022-09-22T12:42:35.153Z,42.63
2022-09-22T12:45:17.065Z,39.60
2022-09-22T12:47:56.970Z,35.17
2022-09-22T12:50:42.311Z,35.53
2022-09-22T12:53:28.803Z,40.07
2022-09-22T12:56:03.219Z,36.10
2022-09-22T12:58:49.063Z,30.03
2022-09-22T13:01:35.955Z,36.00
2022-09-22T13:04:22.232Z,38.63
2022-09-22T13:07:03.736Z,29.97
2022-09-22T13:09:36.887Z,35.23
2022-09-22T13:12:32.532Z,37.20
2022-09-22T13:15:21.982Z,40.33
2022-09-22T13:17:56.259Z,33.13
2022-09-22T13:20:35.148Z,35.00
2022-09-22T13:23:14.246Z,39.13
2022-09-22T13:25:48.559Z,33.07
2022-09-22T13:28:23.750Z,38.33
2022-09-22T13:31:19.864Z,34.40
2022-09-22T13:33:54.050Z,37.73
2022-09-22T13:36:28.702Z,36.10
2022-09-22T13:39:03.933Z,35.47
2022-09-22T13:41:45.357Z,37.63
2022-09-22T13:44:21.684Z,37.40
2022-09-22T13:46:58.593Z,38.30
2022-09-22T13:49:41.446Z,36.97
2022-09-22T13:52:19.508Z,40.40
2022-09-22T13:54:57.964Z,41.63
2022-09-22T13:57:34.086Z,32.30
2022-09-22T14:00:09.385Z,38.93
2022-09-22T14:02:49.165Z,37.40
2022-09-22T14:05:24.131Z,35.37
2022-09-22T14:08:18.302Z,36.67
2022-09-22T14:10:53.990Z,32.33
2022-09-22T14:13:44.810Z,36.30
2022-09-22T14:16:26.992Z,27.00
2022-09-22T14:19:09.219Z,31.03
2022-09-22T14:21:48.564Z,27.27
2022-09-22T14:24:22.968Z,29.53
2022-09-22T14:27:03.119Z,36.73
2022-09-22T14:29:39.872Z,37.90
2022-09-22T14:32:19.729Z,36.13
2022-09-22T14:34:59.743Z,37.13
2022-09-22T14:37:36.542Z,33.30
2022-09-22T14:40:20.361Z,32.17
2022-09-22T14:43:05.571Z,26.47
2022-09-22T14:45:40.069Z,29.83
2022-09-22T14:48:23.342Z,34.53
2022-09-22T14:51:02.986Z,30.10
2022-09-22T14:53:41.034Z,34.70
2022-09-22T14:56:19.423Z,31.20
2022-09-22T14:59:01.028Z,24.23
2022-09-22T15:01:53.143Z,26.00
2022-09-22T15:04:28.850Z,30.17
2022-09-22T15:07:04.781Z,35.50
2022-09-22T15:09:42.602Z,31.47
2022-09-22T15:12:39.249Z,30.13
2022-09-22T15:15:25.269Z,32.57
2022-09-22T15:18:20.993Z,31.40
2022-09-22T15:20:57.356Z,25.00
2022-09-22T15:23:40.689Z,31.43
2022-09-22T15:26:21.722Z,34.70
2022-09-22T15:29:00.198Z,35.13
2022-09-22T15:31:34.606Z,32.93
2022-09-22T15:34:08.846Z,38.17
2022-09-22T15:36:47.828Z,39.00
2022-09-22T15:39:26.729Z,36.70
2022-09-22T15:41:59.982Z,34.97
2022-09-22T15:44:34.385Z,34.40
2022-09-22T15:47:08.350Z,36.10
2022-09-22T15:49:42.820Z,39.07
2022-09-22T15:52:16.392Z,39.27
2022-09-22T15:54:51.153Z,34.67
2022-09-22T15:57:25.267Z,35.23
2022-09-22T15:59:59.061Z,30.17
2022-09-22T16:02:33.376Z,33.43
2022-09-22T16:05:07.515Z,31.70
2022-09-22T16:07:42.085Z,36.00
2022-09-22T16:10:20.733Z,36.53
2022-09-22T16:12:55.061Z,35.47
2022-09-22T16:15:28.452Z,35.70
2022-09-22T16:18:02.508Z,34.87
2022-09-22T16:20:36.576Z,38.83
2022-09-22T16:23:11.301Z,31.37
2022-09-22T16:25:47.748Z,44.10
2022-09-22T16:28:21.537Z,35.70
2022-09-22T16:30:55.193Z,36.17
2022-09-22T16:33:28.927Z,41.40
2022-09-22T16:36:02.568Z,37.90
2022-09-22T16:38:36.421Z,35.93
2022-09-22T16:41:21.375Z,40.93
2022-09-22T16:43:55.679Z,35.27
2022-09-22T16:46:33.288Z,40.83
2022-09-22T16:49:09.209Z,38.97
2022-09-22T16:51:44.606Z,46.57
2022-09-22T16:54:19.619Z,40.77
2022-09-22T16:56:56.952Z,51.17
2022-09-22T16:59:31.083Z,48.00
2022-09-22T17:02:04.371Z,39.43
2022-09-22T17:04:38.173Z,39.23
2022-09-22T17:07:11.796Z,43.57
2022-09-22T17:09:46.228Z,38.07
2022-09-22T17:12:21.283Z,40.93
2022-09-22T17:14:55.076Z,43.13
2022-09-22T17:17:28.786Z,43.10
2022-09-22T17:20:02.889Z,47.80
2022-09-22T17:22:36.497Z,41.30
2022-09-22T17:25:11.101Z,40.47
2022-09-22T17:27:46.774Z,50.10
2022-09-22T17:30:20.561Z,39.93
2022-09-22T17:32:55.096Z,37.60
2022-09-22T17:35:28.839Z,37.70
2022-09-22T17:38:03.265Z,40.47
2022-09-22T17:40:37.145Z,43.13
2022-09-22T17:43:17.589Z,44.87
2022-09-22T17:45:55.179Z,42.10
2022-09-22T17:48:46.256Z,38.00
2022-09-22T17:51:50.763Z,38.73
2022-09-22T17:54:42.700Z,36.67
2022-09-22T17:57:18.386Z,34.20
2022-09-22T17:59:54.961Z,37.10
2022-09-22T18:02:33.502Z,35.97
2022-09-22T18:05:08.042Z,37.57
2022-09-22T18:07:42.675Z,36.43
2022-09-22T18:10:19.099Z,36.80
2022-09-22T18:12:52.823Z,34.77
2022-09-22T18:15:29.975Z,43.47
2022-09-22T18:18:03.393Z,37.67
2022-09-22T18:20:36.726Z,37.00
2022-09-22T18:23:10.224Z,35.33
2022-09-22T18:25:43.904Z,35.27
2022-09-22T18:28:17.702Z,34.43
2022-09-22T18:30:53.403Z,31.57
2022-09-22T18:33:27.845Z,31.73
2022-09-22T18:36:01.222Z,37.33
2022-09-22T18:38:34.600Z,37.93
2022-09-22T18:41:08.443Z,41.70
2022-09-22T18:43:43.789Z,40.07
2022-09-22T18:46:21.958Z,35.20
2022-09-22T18:48:58.671Z,38.87
2022-09-22T18:51:32.350Z,41.37
2022-09-22T18:54:09.564Z,40.03
2022-09-22T18:56:46.712Z,40.07
2022-09-22T18:59:22.179Z,45.17
2022-09-22T19:01:58.840Z,44.63
2022-09-22T19:04:33.065Z,43.83
2022-09-22T19:07:22.594Z,46.57
2022-09-22T19:09:56.048Z,44.13
2022-09-22T19:12:32.094Z,42.33
2022-09-22T19:15:06.326Z,44.90
2022-09-22T19:17:41.943Z,47.30
2022-09-22T19:20:18.350Z,44.73
2022-09-22T19:22:53.445Z,50.63
2022-09-22T19:25:27.837Z,43.77
2022-09-22T19:28:03.609Z,44.33
2022-09-22T19:30:37.810Z,49.13
2022-09-22T19:33:13.915Z,45.47
2022-09-22T19:35:47.512Z,42.87
2022-09-22T19:38:21.558Z,41.10
2022-09-22T19:40:58.756Z,41.77
2022-09-22T19:43:33.213Z,41.07
2022-09-22T19:46:07.188Z,51.07
2022-09-22T19:48:42.880Z,42.90
2022-09-22T19:51:15.678Z,47.03
2022-09-22T19:53:49.463Z,44.60
2022-09-22T19:56:23.552Z,47.63
2022-09-22T19:58:58.027Z,47.00
2022-09-22T20:01:37.218Z,50.43
2022-09-22T20:04:17.293Z,55.37
2022-09-22T20:06:51.573Z,48.07
2022-09-22T20:09:25.420Z,51.37
2022-09-22T20:11:59.645Z,51.43
2022-09-22T20:14:34.047Z,45.47
2022-09-22T20:17:09.489Z,53.83
2022-09-22T20:19:45.818Z,46.27
2022-09-22T20:22:28.833Z,47.83
2022-09-22T20:25:04.014Z,54.43
2022-09-22T20:27:39.173Z,47.63
2022-09-22T20:30:13.785Z,53.40
2022-09-22T20:32:48.760Z,52.07
2022-09-22T20:35:25.828Z,47.80
2022-09-22T20:38:00.546Z,48.37
2022-09-22T20:40:34.581Z,47.37
2022-09-22T20:43:08.916Z,46.53
2022-09-22T20:45:43.148Z,48.20
2022-09-22T20:48:20.758Z,47.17
2022-09-22T20:51:03.437Z,43.07
2022-09-22T20:53:41.175Z,44.00
2022-09-22T20:56:15.832Z,48.77
2022-09-22T20:58:50.384Z,44.00
2022-09-22T21:01:27.330Z,39.73
2022-09-22T21:04:01.682Z,37.87
2022-09-22T21:06:37.734Z,41.33
2022-09-22T21:09:28.269Z,34.00
2022-09-22T21:12:01.531Z,34.03
2022-09-22T21:14:35.361Z,36.33
2022-09-22T21:17:10.285Z,39.47
2022-09-22T21:19:44.514Z,36.40
2022-09-22T21:22:21.150Z,37.80
2022-09-22T21:24:54.880Z,36.93
2022-09-22T21:27:28.929Z,33.03
2022-09-22T21:30:03.034Z,38.10
2022-09-22T21:32:37.365Z,33.70
2022-09-22T21:35:11.311Z,33.77
2022-09-22T21:37:46.976Z,36.87
2022-09-22T21:40:20.945Z,32.60
2022-09-22T21:42:54.408Z,36.70
2022-09-22T21:45:28.233Z,34.70
2022-09-22T21:48:03.061Z,32.33
2022-09-22T21:50:36.759Z,38.83
2022-09-22T21:53:13.600Z,33.03
2022-09-22T21:55:48.025Z,33.77
2022-09-22T21:58:22.420Z,40.67
2022-09-22T22:00:56.630Z,34.43
2022-09-22T22:03:36.818Z,34.97
2022-09-22T22:06:13.985Z,37.07
2022-09-22T22:08:51.593Z,36.80
2022-09-22T22:11:26.558Z,38.27
2022-09-22T22:14:01.649Z,35.10
2022-09-22T22:16:44.067Z,35.93
2022-09-22T22:19:21.247Z,29.80
2022-09-22T22:21:56.315Z,24.70
2022-09-22T22:24:36.784Z,32.33
2022-09-22T22:27:11.416Z,40.43
2022-09-22T22:29:46.004Z,32.47
2022-09-22T22:32:20.696Z,39.63
2022-09-22T22:34:56.716Z,41.97
2022-09-22T22:37:30.467Z,32.70
2022-09-22T22:40:06.897Z,34.13
2022-09-22T22:42:41.217Z,34.00
2022-09-22T22:45:15.903Z,30.93
2022-09-22T22:47:50.221Z,33.30
2022-09-22T22:50:24.035Z,33.57
2022-09-22T22:52:58.064Z,39.13
2022-09-22T22:55:33.660Z,35.13
2022-09-22T22:58:08.155Z,32.57
2022-09-22T23:00:41.796Z,29.63
2022-09-22T23:03:15.471Z,35.30
2022-09-22T23:05:58.412Z,32.70
2022-09-22T23:08:33.523Z,34.07
2022-09-22T23:11:12.623Z,31.03
2022-09-22T23:13:52.202Z,27.90
2022-09-22T23:16:28.410Z,26.60
2022-09-22T23:19:03.434Z,22.00
2022-09-22T23:21:36.841Z,24.90
2022-09-22T23:24:11.991Z,28.07
2022-09-22T23:26:47.654Z,27.23
2022-09-22T23:29:24.820Z,34.60
2022-09-22T23:31:59.133Z,32.27
2022-09-22T23:34:33.099Z,34.13
2022-09-22T23:37:07.360Z,31.10
2022-09-22T23:39:40.859Z,26.00
2022-09-22T23:42:17.072Z,31.37
2022-09-22T23:44:50.688Z,27.47
2022-09-22T23:47:24.902Z,32.03
2022-09-22T23:49:58.484Z,31.63
2022-09-22T23:52:32.685Z,27.83
2022-09-22T23:55:06.070Z,26.30
2022-09-22T23:57:42.163Z,26.10
